Time;durP1;ratioP1;P1;durP2;ratioP2;P2;SDS_P1;SDS_P2;PMS_P1;PMS_P2;Temp;Humidity;BMP_temperature;BMP_pressure;BME280_temperature;BME280_humidity;BME280_pressure;Samples;Min_cycle;Max_cycle;Signal;HPM_P1;HPM_P2
2023/12/21 00:01:18;;;;;;;30.38;23.38;;;;;;;;;;5055005;28;20404;-70
2023/12/21 00:03:44;;;;;;;27.48;21.05;;;;;;;;;;5055754;28;20391;-73
2023/12/21 00:06:10;;;;;;;28.40;22.55;;;;;;;;;;5055546;28;20384;-70
2023/12/21 00:08:36;;;;;;;32.22;27.67;;;;;;;;;;5054950;28;20464;-70
2023/12/21 00:11:02;;;;;;;29.30;22.90;;;;;;;;;;5054945;28;20374;-70
2023/12/21 00:13:28;;;;;;;25.23;18.60;;;;;;;;;;5055606;28;20463;-71
2023/12/21 00:15:54;;;;;;;33.95;27.98;;;;;;;;;;5055173;28;20384;-68
2023/12/21 00:18:20;;;;;;;26.48;22.25;;;;;;;;;;5055041;28;20884;-71
2023/12/21 00:20:46;;;;;;;26.25;20.63;;;;;;;;;;5037241;28;20386;-73
2023/12/21 00:23:12;;;;;;;27.80;20.63;;;;;;;;;;5037668;28;20382;-69
2023/12/21 00:25:38;;;;;;;24.50;19.70;;;;;;;;;;5054909;28;20449;-69
2023/12/21 00:28:04;;;;;;;28.70;22.33;;;;;;;;;;5054743;28;20766;-69
2023/12/21 00:30:30;;;;;;;25.40;21.23;;;;;;;;;;5054494;28;20381;-69
2023/12/21 00:32:56;;;;;;;35.97;30.63;;;;;;;;;;5055143;28;20393;-69
2023/12/21 00:35:22;;;;;;;21.43;17.97;;;;;;;;;;5054743;28;20454;-69
2023/12/21 00:37:48;;;;;;;23.73;19.95;;;;;;;;;;5036716;28;20409;-69
2023/12/21 00:40:14;;;;;;;21.85;17.02;;;;;;;;;;5054538;28;20855;-70
2023/12/21 00:42:41;;;;;;;21.15;18.77;;;;;;;;;;5036910;28;20388;-71
2023/12/21 00:45:08;;;;;;;19.60;17.27;;;;;;;;;;5036538;28;20492;-69
2023/12/21 00:47:34;;;;;;;19.20;16.70;;;;;;;;;;5054691;28;20382;-69
2023/12/21 00:50:00;;;;;;;19.65;17.33;;;;;;;;;;5054540;28;20396;-71
2023/12/21 00:52:26;;;;;;;19.27;17.08;;;;;;;;;;5053785;28;20435;-71
2023/12/21 00:54:52;;;;;;;24.27;19.13;;;;;;;;;;5054302;28;20391;-70
2023/12/21 00:57:18;;;;;;;20.70;16.55;;;;;;;;;;5054251;28;20381;-70
2023/12/21 00:59:44;;;;;;;20.90;18.38;;;;;;;;;;5054590;28;20381;-70
2023/12/21 01:02:10;;;;;;;24.38;21.73;;;;;;;;;;5036418;28;20404;-70
2023/12/21 01:04:36;;;;;;;23.13;20.63;;;;;;;;;;5053945;28;20859;-70
2023/12/21 01:07:02;;;;;;;21.45;17.45;;;;;;;;;;5054168;28;20786;-70
2023/12/21 01:09:28;;;;;;;20.30;18.17;;;;;;;;;;5054228;28;20744;-70
2023/12/21 01:11:54;;;;;;;19.88;17.08;;;;;;;;;;5054162;28;20382;-71
2023/12/21 01:14:21;;;;;;;22.17;17.30;;;;;;;;;;5054468;28;20392;-70
2023/12/21 01:16:47;;;;;;;20.63;17.58;;;;;;;;;;5053647;28;20396;-74
2023/12/21 01:19:13;;;;;;;21.40;17.17;;;;;;;;;;5053631;28;20753;-70
2023/12/21 01:21:39;;;;;;;21.20;18.15;;;;;;;;;;5053368;28;20377;-70
2023/12/21 01:24:06;;;;;;;21.98;18.80;;;;;;;;;;5054048;28;20377;-72
2023/12/21 01:26:31;;;;;;;23.58;18.67;;;;;;;;;;5054059;28;20396;-72
2023/12/21 01:28:57;;;;;;;20.38;18.15;;;;;;;;;;5054597;28;20831;-70
2023/12/21 01:31:24;;;;;;;24.17;18.25;;;;;;;;;;5035756;28;20389;-70
2023/12/21 01:33:50;;;;;;;21.92;17.25;;;;;;;;;;5053596;28;20435;-69
2023/12/21 01:36:15;;;;;;;21.77;18.10;;;;;;;;;;5054282;28;20767;-70
2023/12/21 01:38:41;;;;;;;22.10;17.40;;;;;;;;;;5054216;28;20401;-71
2023/12/21 01:41:07;;;;;;;20.67;16.85;;;;;;;;;;5036168;28;20914;-70
2023/12/21 01:43:34;;;;;;;23.20;18.33;;;;;;;;;;5054571;28;20416;-70
2023/12/21 01:46:00;;;;;;;20.13;17.88;;;;;;;;;;5035852;28;20374;-70
2023/12/21 01:48:27;;;;;;;22.13;19.17;;;;;;;;;;5053746;28;20385;-72
2023/12/21 01:50:53;;;;;;;21.83;19.15;;;;;;;;;;5057795;28;20458;-69
2023/12/21 01:53:19;;;;;;;23.03;18.57;;;;;;;;;;5058127;28;20477;-69
2023/12/21 01:55:46;;;;;;;25.98;19.50;;;;;;;;;;5057711;28;20763;-69
2023/12/21 01:58:12;;;;;;;22.65;18.58;;;;;;;;;;5057334;28;20413;-70
2023/12/21 02:00:38;;;;;;;24.60;19.25;;;;;;;;;;5057678;28;20856;-72
2023/12/21 02:03:05;;;;;;;21.70;18.25;;;;;;;;;;5058075;28;20446;-70
2023/12/21 02:05:31;;;;;;;28.02;20.95;;;;;;;;;;5057823;28;20373;-68
2023/12/21 02:07:58;;;;;;;27.90;20.50;;;;;;;;;;5057640;28;20443;-71
2023/12/21 02:10:23;;;;;;;26.87;21.17;;;;;;;;;;5057204;28;20413;-71
2023/12/21 02:12:49;;;;;;;25.60;21.50;;;;;;;;;;5039302;28;20392;-71
2023/12/21 02:15:15;;;;;;;26.10;20.70;;;;;;;;;;5057275;28;20389;-71
2023/12/21 02:17:43;;;;;;;25.48;20.67;;;;;;;;;;5056533;28;20504;-69
2023/12/21 02:20:10;;;;;;;25.65;20.65;;;;;;;;;;5057295;28;20404;-71
2023/12/21 02:22:37;;;;;;;31.50;20.27;;;;;;;;;;5038966;28;20469;-69
2023/12/21 02:25:03;;;;;;;27.55;19.92;;;;;;;;;;5039328;28;20382;-69
2023/12/21 02:27:29;;;;;;;25.60;20.45;;;;;;;;;;5039316;28;20381;-69
2023/12/21 02:29:55;;;;;;;26.05;20.98;;;;;;;;;;5056896;28;20465;-70
2023/12/21 02:32:21;;;;;;;26.35;20.10;;;;;;;;;;5039226;28;20895;-69
2023/12/21 02:34:47;;;;;;;27.17;19.63;;;;;;;;;;5056718;28;20386;-68
2023/12/21 02:37:13;;;;;;;25.17;20.10;;;;;;;;;;5056872;28;20389;-69
2023/12/21 02:39:39;;;;;;;21.95;18.25;;;;;;;;;;5038898;28;20470;-70
2023/12/21 02:42:05;;;;;;;22.08;18.73;;;;;;;;;;5056715;28;20423;-70
2023/12/21 02:44:31;;;;;;;22.25;18.15;;;;;;;;;;5057145;28;20747;-69
2023/12/21 02:46:58;;;;;;;19.90;17.02;;;;;;;;;;5057012;28;20427;-71
2023/12/21 02:49:24;;;;;;;21.85;17.38;;;;;;;;;;5056209;28;20374;-72
2023/12/21 02:51:50;;;;;;;22.85;17.88;;;;;;;;;;5038341;28;20895;-71
2023/12/21 02:54:16;;;;;;;20.48;18.13;;;;;;;;;;5056657;28;20428;-72
2023/12/21 02:56:42;;;;;;;18.83;16.10;;;;;;;;;;5038485;28;20886;-70
2023/12/21 02:59:08;;;;;;;19.73;17.30;;;;;;;;;;5056660;28;20508;-69
2023/12/21 03:01:34;;;;;;;20.33;16.95;;;;;;;;;;5054899;28;20378;-70
2023/12/21 03:04:00;;;;;;;19.38;16.85;;;;;;;;;;5056849;28;20396;-69
2023/12/21 03:06:26;;;;;;;18.92;15.82;;;;;;;;;;5056196;28;20468;-69
2023/12/21 03:08:53;;;;;;;19.63;15.53;;;;;;;;;;5056255;28;20424;-70
2023/12/21 03:11:19;;;;;;;17.67;14.93;;;;;;;;;;5056149;28;20480;-71
2023/12/21 03:13:45;;;;;;;20.25;14.80;;;;;;;;;;5055944;28;20421;-70
2023/12/21 03:16:12;;;;;;;18.83;14.15;;;;;;;;;;5056093;28;20389;-69
2023/12/21 03:18:38;;;;;;;19.00;13.40;;;;;;;;;;5055868;28;20914;-71
2023/12/21 03:21:04;;;;;;;17.27;13.77;;;;;;;;;;5055865;28;20377;-69
2023/12/21 03:23:30;;;;;;;18.10;12.70;;;;;;;;;;5055878;28;20381;-69
2023/12/21 03:25:56;;;;;;;17.93;12.27;;;;;;;;;;5055720;28;20898;-71
2023/12/21 03:28:23;;;;;;;18.25;12.32;;;;;;;;;;5055941;28;20428;-70
2023/12/21 03:30:49;;;;;;;16.13;11.85;;;;;;;;;;5055355;28;20767;-70
2023/12/21 03:33:15;;;;;;;15.73;11.17;;;;;;;;;;5055669;28;20421;-65
2023/12/21 03:35:41;;;;;;;12.85;10.68;;;;;;;;;;5037892;28;20736;-70
2023/12/21 03:38:10;;;;;;;14.00;10.48;;;;;;;;;;5055452;28;20764;-70
2023/12/21 03:40:36;;;;;;;14.30;10.80;;;;;;;;;;5055276;28;20768;-69
2023/12/21 03:43:02;;;;;;;12.35;10.30;;;;;;;;;;5037162;28;20386;-69
2023/12/21 03:45:29;;;;;;;14.00;10.43;;;;;;;;;;5055637;28;20381;-69
2023/12/21 03:47:55;;;;;;;12.93;10.43;;;;;;;;;;5055568;28;20725;-69
2023/12/21 03:50:21;;;;;;;12.93;9.60;;;;;;;;;;5055772;28;20443;-69
2023/12/21 03:52:47;;;;;;;13.48;10.25;;;;;;;;;;5055275;28;20389;-65
2023/12/21 03:55:13;;;;;;;14.18;10.57;;;;;;;;;;5055775;28;20443;-64
2023/12/21 03:57:39;;;;;;;13.50;10.30;;;;;;;;;;5055887;28;20401;-65
2023/12/21 04:00:06;;;;;;;15.32;10.20;;;;;;;;;;5055341;28;20374;-66
2023/12/21 04:02:32;;;;;;;13.27;9.50;;;;;;;;;;5055567;28;20752;-66
2023/12/21 04:04:58;;;;;;;13.50;9.88;;;;;;;;;;5055421;28;20480;-66
2023/12/21 04:07:24;;;;;;;13.85;9.68;;;;;;;;;;5055362;28;20467;-66
2023/12/21 04:09:50;;;;;;;13.52;9.40;;;;;;;;;;5055574;28;20377;-65
2023/12/21 04:12:16;;;;;;;12.77;9.27;;;;;;;;;;5054530;28;20373;-65
2023/12/21 04:14:42;;;;;;;11.20;8.88;;;;;;;;;;5055108;28;20899;-66
2023/12/21 04:17:08;;;;;;;12.55;9.35;;;;;;;;;;5037226;28;20460;-65
2023/12/21 04:19:35;;;;;;;12.93;9.52;;;;;;;;;;5035865;28;20469;-69
2023/12/21 04:22:01;;;;;;;12.98;9.02;;;;;;;;;;5054803;28;20802;-67
2023/12/21 04:24:27;;;;;;;12.95;8.63;;;;;;;;;;5054888;28;20378;-66
2023/12/21 04:26:53;;;;;;;13.32;9.10;;;;;;;;;;5037008;28;20472;-66
2023/12/21 04:29:19;;;;;;;16.73;10.10;;;;;;;;;;5055296;28;20408;-66
2023/12/21 04:31:45;;;;;;;13.25;9.50;;;;;;;;;;5054647;28;20401;-66
2023/12/21 04:34:11;;;;;;;12.57;9.45;;;;;;;;;;5036785;28;20460;-66
2023/12/21 04:36:37;;;;;;;14.18;9.30;;;;;;;;;;5055317;28;20436;-66
2023/12/21 04:39:03;;;;;;;12.63;9.47;;;;;;;;;;5054658;28;20412;-66
2023/12/21 04:41:29;;;;;;;13.98;9.52;;;;;;;;;;5054567;28;20732;-66
2023/12/21 04:43:55;;;;;;;16.73;9.25;;;;;;;;;;5054639;28;20374;-67
2023/12/21 04:46:22;;;;;;;13.82;8.95;;;;;;;;;;5036945;28;20527;-66
2023/12/21 04:48:48;;;;;;;13.63;8.93;;;;;;;;;;5054523;28;20377;-66
2023/12/21 04:51:17;;;;;;;15.63;9.93;;;;;;;;;;5054540;28;20820;-69
2023/12/21 04:53:43;;;;;;;16.03;9.67;;;;;;;;;;5054664;28;20439;-70
2023/12/21 04:56:09;;;;;;;12.88;8.73;;;;;;;;;;5054091;28;20413;-66
2023/12/21 04:58:35;;;;;;;12.35;9.25;;;;;;;;;;5036353;28;20441;-66
2023/12/21 05:01:01;;;;;;;15.20;9.57;;;;;;;;;;5054837;28;20384;-65
2023/12/21 05:03:27;;;;;;;13.95;8.85;;;;;;;;;;5053997;28;20772;-65
2023/12/21 05:05:53;;;;;;;13.18;8.80;;;;;;;;;;5054356;28;20373;-65
2023/12/21 05:08:19;;;;;;;14.52;9.05;;;;;;;;;;5036074;28;20848;-68
2023/12/21 05:10:45;;;;;;;13.35;8.60;;;;;;;;;;5053315;28;20378;-65
2023/12/21 05:13:11;;;;;;;15.18;9.70;;;;;;;;;;5053994;28;20381;-65
2023/12/21 05:15:37;;;;;;;14.27;10.05;;;;;;;;;;5054289;28;20400;-66
2023/12/21 05:18:04;;;;;;;15.50;9.57;;;;;;;;;;5053964;28;20412;-66
2023/12/21 05:20:30;;;;;;;14.88;9.90;;;;;;;;;;5036081;28;20382;-66
2023/12/21 05:22:56;;;;;;;16.42;10.95;;;;;;;;;;5053678;28;20821;-66
2023/12/21 05:25:22;;;;;;;14.75;10.05;;;;;;;;;;5053134;28;20381;-66
2023/12/21 05:27:48;;;;;;;17.92;10.77;;;;;;;;;;5053903;28;20400;-66
2023/12/21 05:30:18;;;;;;;18.25;10.23;;;;;;;;;;5054015;28;20385;-65
2023/12/21 05:32:44;;;;;;;18.73;10.90;;;;;;;;;;5036394;28;20987;-66
2023/12/21 05:35:10;;;;;;;20.63;11.07;;;;;;;;;;5054067;28;20392;-66
2023/12/21 05:37:36;;;;;;;19.70;11.57;;;;;;;;;;5053721;28;20381;-66
2023/12/21 05:40:03;;;;;;;18.75;11.75;;;;;;;;;;5054036;28;20415;-66
2023/12/21 05:42:29;;;;;;;20.35;12.85;;;;;;;;;;5053326;28;20883;-66
2023/12/21 05:44:55;;;;;;;19.85;12.20;;;;;;;;;;5053767;28;20385;-65
2023/12/21 05:47:21;;;;;;;20.17;12.20;;;;;;;;;;5035948;28;20441;-66
2023/12/21 05:49:47;;;;;;;24.83;12.48;;;;;;;;;;5053665;28;20397;-66
2023/12/21 05:52:13;;;;;;;24.00;11.38;;;;;;;;;;5035834;28;20472;-70
2023/12/21 05:54:39;;;;;;;23.45;12.48;;;;;;;;;;5053723;28;20424;-67
2023/12/21 05:57:05;;;;;;;25.75;13.55;;;;;;;;;;5054207;28;20378;-66
2023/12/21 05:59:31;;;;;;;21.60;12.30;;;;;;;;;;5054063;28;20903;-66
2023/12/21 06:01:57;;;;;;;21.43;12.03;;;;;;;;;;5053701;28;20541;-69
2023/12/21 06:04:23;;;;;;;20.55;11.52;;;;;;;;;;5053625;28;20392;-66
2023/12/21 06:06:49;;;;;;;22.73;11.68;;;;;;;;;;5053537;28;20381;-64
2023/12/21 06:09:15;;;;;;;22.50;10.63;;;;;;;;;;5053502;28;20389;-66
2023/12/21 06:11:41;;;;;;;18.55;10.50;;;;;;;;;;5053659;28;20393;-65
2023/12/21 06:14:07;;;;;;;19.80;10.90;;;;;;;;;;5053573;28;20428;-65
2023/12/21 06:16:33;;;;;;;23.70;10.57;;;;;;;;;;5036017;28;20750;-67
2023/12/21 06:19:00;;;;;;;24.15;10.80;;;;;;;;;;5054580;28;20416;-66
2023/12/21 06:21:26;;;;;;;19.45;11.60;;;;;;;;;;5054038;28;20453;-66
2023/12/21 06:23:52;;;;;;;25.60;11.88;;;;;;;;;;5038103;28;20417;-67
2023/12/21 06:26:18;;;;;;;23.33;12.77;;;;;;;;;;5056174;28;20792;-66
2023/12/21 06:28:46;;;;;;;19.98;11.18;;;;;;;;;;5056146;28;20725;-66
2023/12/21 06:31:16;;;;;;;22.45;12.25;;;;;;;;;;5056421;28;20404;-66
2023/12/21 06:33:43;;;;;;;24.42;12.43;;;;;;;;;;5038285;28;20397;-67
2023/12/21 06:36:09;;;;;;;24.08;12.52;;;;;;;;;;5040231;28;20870;-68
2023/12/21 06:38:35;;;;;;;20.50;11.03;;;;;;;;;;5058744;28;20206;-69
2023/12/21 06:41:01;;;;;;;23.67;10.93;;;;;;;;;;5057350;28;20218;-67
2023/12/21 06:43:27;;;;;;;21.57;8.83;;;;;;;;;;5057559;28;20174;-68
2023/12/21 06:45:53;;;;;;;22.27;10.80;;;;;;;;;;5058114;28;20182;-66
2023/12/21 06:48:19;;;;;;;19.73;10.13;;;;;;;;;;5056999;28;20637;-66
2023/12/21 06:50:48;;;;;;;21.20;10.60;;;;;;;;;;5039157;28;20236;-67
2023/12/21 06:53:15;;;;;;;19.13;9.60;;;;;;;;;;5057367;28;20179;-65
2023/12/21 06:55:44;;;;;;;18.80;10.80;;;;;;;;;;5057888;28;20638;-66
2023/12/21 06:58:10;;;;;;;18.03;10.33;;;;;;;;;;5057900;28;20202;-65
2023/12/21 07:00:36;;;;;;;14.47;10.53;;;;;;;;;;5056598;22;20226;-71
2023/12/21 07:03:02;;;;;;;22.33;10.97;;;;;;;;;;5018402;28;20775;-71
2023/12/21 07:05:28;;;;;;;26.50;11.30;;;;;;;;;;5036069;28;20175;-71
2023/12/21 07:07:54;;;;;;;18.67;9.87;;;;;;;;;;5018133;28;20648;-71
2023/12/21 07:10:21;;;;;;;18.10;10.60;;;;;;;;;;5035686;28;20199;-71
2023/12/21 07:12:47;;;;;;;26.40;10.90;;;;;;;;;;5037147;28;20258;-71
2023/12/21 07:15:13;;;;;;;19.73;10.07;;;;;;;;;;5035926;28;20179;-72
2023/12/21 07:17:39;;;;;;;21.90;10.17;;;;;;;;;;5035487;28;20230;-71
2023/12/21 07:20:05;;;;;;;20.00;10.47;;;;;;;;;;5035554;28;20570;-72
2023/12/21 07:22:31;;;;;;;16.13;10.13;;;;;;;;;;5035522;28;20175;-71
2023/12/21 07:24:57;;;;;;;19.93;8.10;;;;;;;;;;5017714;28;20524;-71
2023/12/21 07:27:24;;;;;;;15.57;8.90;;;;;;;;;;5017885;28;20521;-71
2023/12/21 07:29:50;;;;;;;17.40;8.53;;;;;;;;;;5017547;28;20179;-70
2023/12/21 07:32:16;;;;;;;12.03;8.33;;;;;;;;;;5017514;28;20183;-70
2023/12/21 07:34:43;;;;;;;18.80;8.73;;;;;;;;;;5017535;28;20281;-70
2023/12/21 07:37:09;;;;;;;18.33;8.43;;;;;;;;;;5035366;28;20262;-70
2023/12/21 07:39:35;;;;;;;19.73;10.83;;;;;;;;;;5035300;28;20562;-70
2023/12/21 07:42:02;;;;;;;16.03;9.30;;;;;;;;;;5035550;28;20639;-70
2023/12/21 07:44:28;;;;;;;17.40;8.83;;;;;;;;;;5035304;28;20179;-71
2023/12/21 07:46:54;;;;;;;16.47;9.37;;;;;;;;;;5016841;28;20217;-70
2023/12/21 07:49:19;;;;;;;20.17;11.50;;;;;;;;;;5034902;28;20185;-71
2023/12/21 07:51:46;;;;;;;20.63;9.87;;;;;;;;;;5035091;28;20245;-71
2023/12/21 07:54:12;;;;;;;17.23;9.70;;;;;;;;;;5035973;28;20175;-71
2023/12/21 07:56:38;;;;;;;18.20;11.10;;;;;;;;;;5034932;28;20557;-69
2023/12/21 07:59:06;;;;;;;21.17;10.47;;;;;;;;;;5017284;28;20207;-70
2023/12/21 08:01:32;;;;;;;20.47;9.47;;;;;;;;;;5035426;28;20588;-70
2023/12/21 08:03:59;;;;;;;19.90;10.33;;;;;;;;;;5017867;28;20294;-70
2023/12/21 08:06:25;;;;;;;19.37;9.93;;;;;;;;;;5017402;28;20680;-70
2023/12/21 08:08:55;;;;;;;23.30;11.17;;;;;;;;;;5034792;28;20179;-70
2023/12/21 08:11:21;;;;;;;22.07;12.83;;;;;;;;;;5035678;28;20217;-70
2023/12/21 08:13:47;;;;;;;21.47;11.13;;;;;;;;;;5017060;28;20183;-70
2023/12/21 08:16:13;;;;;;;21.83;12.10;;;;;;;;;;5034678;28;20198;-70
2023/12/21 08:18:39;;;;;;;24.47;11.77;;;;;;;;;;5034755;28;20713;-70
2023/12/21 08:21:05;;;;;;;20.33;11.73;;;;;;;;;;5016446;28;20218;-70
2023/12/21 08:23:31;;;;;;;23.00;11.07;;;;;;;;;;5034386;28;20179;-70
2023/12/21 08:25:57;;;;;;;28.30;11.17;;;;;;;;;;5035169;28;20182;-71
2023/12/21 08:28:25;;;;;;;17.47;9.07;;;;;;;;;;5035930;28;20667;-70
2023/12/21 08:30:51;;;;;;;16.77;9.93;;;;;;;;;;5035061;28;20195;-70
2023/12/21 08:33:17;;;;;;;19.07;10.07;;;;;;;;;;5034786;28;20237;-71
2023/12/21 08:35:43;;;;;;;20.00;9.77;;;;;;;;;;5034499;28;20187;-71
2023/12/21 08:38:10;;;;;;;21.60;10.30;;;;;;;;;;5016634;28;20246;-69
2023/12/21 08:40:36;;;;;;;18.27;9.37;;;;;;;;;;5016563;28;20223;-70
2023/12/21 08:43:02;;;;;;;19.23;10.73;;;;;;;;;;5034108;28;20345;-71
2023/12/21 08:45:28;;;;;;;23.90;10.30;;;;;;;;;;5016436;28;20179;-70
2023/12/21 08:47:55;;;;;;;20.70;10.67;;;;;;;;;;5016130;28;20262;-70
2023/12/21 08:50:21;;;;;;;23.73;8.80;;;;;;;;;;5034928;28;20191;-70
2023/12/21 08:52:47;;;;;;;17.10;9.80;;;;;;;;;;5035300;28;20285;-71
2023/12/21 08:55:13;;;;;;;15.67;8.13;;;;;;;;;;5035495;28;20171;-70
2023/12/21 08:57:39;;;;;;;20.17;9.43;;;;;;;;;;5033662;28;20229;-69
2023/12/21 09:00:06;;;;;;;17.40;8.10;;;;;;;;;;5015175;28;20552;-70
2023/12/21 09:02:35;;;;;;;15.43;6.97;;;;;;;;;;5033802;28;20214;-70
2023/12/21 09:05:02;;;;;;;15.15;8.20;;;;;;;;;;5032848;28;20424;-70
2023/12/21 09:07:28;;;;;;;19.02;9.85;;;;;;;;;;5015943;28;20398;-69
2023/12/21 09:09:54;;;;;;;14.65;7.75;;;;;;;;;;5014998;28;20467;-69
2023/12/21 09:12:20;;;;;;;14.05;7.80;;;;;;;;;;5032382;28;20418;-69
2023/12/21 09:14:46;;;;;;;17.58;7.38;;;;;;;;;;5032619;28;20422;-72
2023/12/21 09:17:14;;;;;;;10.75;6.85;;;;;;;;;;5033790;28;20379;-71
2023/12/21 09:19:40;;;;;;;16.17;10.45;;;;;;;;;;5016073;28;20455;-71
2023/12/21 09:22:06;;;;;;;11.63;6.00;;;;;;;;;;5015980;28;20535;-70
2023/12/21 09:24:32;;;;;;;13.30;6.10;;;;;;;;;;5033697;28;20482;-69
2023/12/21 09:26:58;;;;;;;10.60;5.20;;;;;;;;;;5033779;28;20384;-70
2023/12/21 09:29:24;;;;;;;11.60;5.20;;;;;;;;;;5034346;28;20379;-70
2023/12/21 09:31:50;;;;;;;15.50;9.98;;;;;;;;;;5033059;28;20382;-70
2023/12/21 09:34:17;;;;;;;9.70;4.80;;;;;;;;;;5015082;28;20387;-70
2023/12/21 09:36:43;;;;;;;9.52;5.03;;;;;;;;;;5015555;28;20424;-70
2023/12/21 09:39:12;;;;;;;8.10;4.30;;;;;;;;;;5033314;28;20448;-69
2023/12/21 09:41:38;;;;;;;7.07;4.25;;;;;;;;;;5033278;28;20412;-70
2023/12/21 09:44:04;;;;;;;6.80;4.20;;;;;;;;;;5014763;28;20379;-70
2023/12/21 09:46:37;;;;;;;7.18;3.80;;;;;;;;;;5032518;28;20418;-71
2023/12/21 09:49:04;;;;;;;8.27;3.70;;;;;;;;;;5014530;28;20507;-70
2023/12/21 09:51:30;;;;;;;5.60;3.17;;;;;;;;;;5014312;28;20531;-70
2023/12/21 09:53:57;;;;;;;8.05;3.40;;;;;;;;;;5018535;28;20736;-69
2023/12/21 09:56:23;;;;;;;5.87;2.93;;;;;;;;;;5032536;28;20383;-70
2023/12/21 09:58:49;;;;;;;7.60;3.60;;;;;;;;;;5032926;28;20406;-70
2023/12/21 10:01:15;;;;;;;3.77;2.87;;;;;;;;;;5014538;28;20405;-70
2023/12/21 10:03:41;;;;;;;4.30;2.85;;;;;;;;;;5014369;28;20387;-70
2023/12/21 10:06:07;;;;;;;3.83;3.05;;;;;;;;;;5032336;28;20394;-70
2023/12/21 10:08:33;;;;;;;4.18;3.17;;;;;;;;;;5014289;28;20470;-70
2023/12/21 10:11:02;;;;;;;3.13;2.50;;;;;;;;;;5016748;28;20486;-70
2023/12/21 10:13:28;;;;;;;3.93;2.90;;;;;;;;;;5018036;28;20389;-70
2023/12/21 10:15:59;;;;;;;4.18;2.72;;;;;;;;;;5035708;28;20421;-70
2023/12/21 10:18:26;;;;;;;4.07;2.80;;;;;;;;;;5035888;28;20407;-69
2023/12/21 10:20:53;;;;;;;4.07;2.92;;;;;;;;;;5019656;28;20402;-70
2023/12/21 10:23:20;;;;;;;3.80;3.20;;;;;;;;;;5037875;28;20475;-69
2023/12/21 10:25:46;;;;;;;5.00;3.50;;;;;;;;;;5040643;28;20383;-71
2023/12/21 10:28:12;;;;;;;5.05;3.53;;;;;;;;;;5038307;28;20382;-71
2023/12/21 10:30:38;;;;;;;4.50;3.97;;;;;;;;;;5038384;28;20409;-72
2023/12/21 10:33:08;;;;;;;4.57;4.13;;;;;;;;;;5020160;28;20379;-71
2023/12/21 10:35:35;;;;;;;4.63;3.97;;;;;;;;;;5038044;28;20944;-71
2023/12/21 10:38:01;;;;;;;6.03;4.78;;;;;;;;;;5037505;28;20439;-71
2023/12/21 10:40:27;;;;;;;7.47;5.32;;;;;;;;;;5038206;28;20459;-72
2023/12/21 10:42:56;;;;;;;7.10;5.20;;;;;;;;;;5020687;28;20418;-71
2023/12/21 10:45:22;;;;;;;8.13;5.80;;;;;;;;;;5038537;28;20463;-71
2023/12/21 10:47:52;;;;;;;8.48;5.60;;;;;;;;;;5038394;28;20371;-71
2023/12/21 10:50:18;;;;;;;7.97;6.10;;;;;;;;;;5038397;28;20468;-71
2023/12/21 10:52:46;;;;;;;7.97;6.47;;;;;;;;;;5037466;28;20421;-68
2023/12/21 10:55:14;;;;;;;7.85;6.60;;;;;;;;;;5019817;28;20387;-69
2023/12/21 10:57:41;;;;;;;9.18;6.80;;;;;;;;;;5037391;28;20371;-69
2023/12/21 11:00:12;;;;;;;8.70;6.68;;;;;;;;;;5037093;28;20383;-69
2023/12/21 11:02:38;;;;;;;9.40;6.82;;;;;;;;;;5036581;28;20866;-69
2023/12/21 11:05:05;;;;;;;11.00;6.93;;;;;;;;;;5018809;28;20460;-69
2023/12/21 11:07:31;;;;;;;7.88;7.03;;;;;;;;;;5039972;28;20793;-69
2023/12/21 11:09:57;;;;;;;10.73;6.55;;;;;;;;;;5045242;28;20387;-69
2023/12/21 11:12:23;;;;;;;10.00;6.40;;;;;;;;;;5026206;28;20415;-69
2023/12/21 11:14:49;;;;;;;8.40;5.85;;;;;;;;;;5023265;28;20401;-70
2023/12/21 11:17:16;;;;;;;11.70;5.72;;;;;;;;;;5042840;28;20383;-70
2023/12/21 11:19:43;;;;;;;11.50;5.10;;;;;;;;;;5039354;28;20411;-70
2023/12/21 11:22:09;;;;;;;7.72;4.47;;;;;;;;;;5034812;28;20375;-71
2023/12/21 11:24:35;;;;;;;7.75;4.63;;;;;;;;;;5017150;28;20383;-71
2023/12/21 11:27:01;;;;;;;8.07;4.25;;;;;;;;;;5035125;28;20383;-71
2023/12/21 11:29:28;;;;;;;7.85;3.42;;;;;;;;;;5035965;28;20414;-71
2023/12/21 11:31:55;;;;;;;6.88;3.00;;;;;;;;;;5035179;28;20390;-72
2023/12/21 11:34:24;;;;;;;6.70;2.80;;;;;;;;;;5035668;28;20379;-72
2023/12/21 11:36:58;;;;;;;9.43;2.72;;;;;;;;;;5018328;28;20388;-72
2023/12/21 11:39:25;;;;;;;5.40;2.25;;;;;;;;;;5035985;28;20402;-73
2023/12/21 11:41:56;;;;;;;4.35;1.88;;;;;;;;;;5017971;28;20398;-73
2023/12/21 11:44:22;;;;;;;5.75;2.25;;;;;;;;;;5018764;28;20731;-72
2023/12/21 11:46:48;;;;;;;6.10;2.35;;;;;;;;;;5036259;28;20375;-72
2023/12/21 11:49:23;;;;;;;6.47;2.28;;;;;;;;;;5036899;28;20752;-72
2023/12/21 11:51:50;;;;;;;5.38;1.90;;;;;;;;;;5037100;28;20419;-72
2023/12/21 11:54:23;;;;;;;5.18;2.00;;;;;;;;;;5016958;28;20391;-73
2023/12/21 11:56:50;;;;;;;6.18;2.13;;;;;;;;;;5039308;28;20457;-74
2023/12/21 11:59:16;;;;;;;5.68;2.40;;;;;;;;;;5017981;28;20411;-72
2023/12/21 12:01:46;;;;;;;6.57;2.60;;;;;;;;;;5018663;28;20406;-72
2023/12/21 12:04:15;;;;;;;5.32;2.90;;;;;;;;;;5036159;28;20420;-71
2023/12/21 12:06:47;;;;;;;7.50;3.00;;;;;;;;;;5026650;28;20393;-71
2023/12/21 12:09:13;;;;;;;5.15;2.60;;;;;;;;;;5051165;28;20397;-71
2023/12/21 12:11:42;;;;;;;5.18;1.92;;;;;;;;;;5051213;28;20391;-70
2023/12/21 12:14:09;;;;;;;5.00;1.67;;;;;;;;;;5031269;28;20379;-70
2023/12/21 12:16:37;;;;;;;5.78;2.83;;;;;;;;;;5041273;28;20379;-72
2023/12/21 12:19:03;;;;;;;3.90;1.90;;;;;;;;;;5033888;28;20812;-71
2023/12/21 12:21:30;;;;;;;3.55;1.58;;;;;;;;;;5015947;28;20381;-71
2023/12/21 12:23:56;;;;;;;3.05;1.63;;;;;;;;;;5015858;28;20746;-72
2023/12/21 12:26:22;;;;;;;2.22;1.40;;;;;;;;;;5033705;28;20383;-70
2023/12/21 12:28:49;;;;;;;4.03;2.00;;;;;;;;;;5016315;28;20390;-70
2023/12/21 12:31:17;;;;;;;3.67;1.83;;;;;;;;;;5016193;28;20391;-71
2023/12/21 12:33:43;;;;;;;4.93;1.88;;;;;;;;;;5015284;28;20769;-71
2023/12/21 12:36:09;;;;;;;5.65;2.35;;;;;;;;;;5033263;28;20396;-71
2023/12/21 12:38:35;;;;;;;5.70;1.98;;;;;;;;;;5033814;28;20403;-71
2023/12/21 12:41:02;;;;;;;5.40;1.90;;;;;;;;;;5033784;28;20408;-71
2023/12/21 12:43:34;;;;;;;2.63;1.75;;;;;;;;;;5016610;28;20403;-71
2023/12/21 12:46:00;;;;;;;4.60;1.73;;;;;;;;;;5015422;28;20918;-71
2023/12/21 12:48:26;;;;;;;2.28;1.60;;;;;;;;;;5033138;28;20379;-70
2023/12/21 12:50:55;;;;;;;2.83;1.50;;;;;;;;;;5015542;28;20828;-71
2023/12/21 12:53:21;;;;;;;3.97;1.90;;;;;;;;;;5033910;28;20375;-70
2023/12/21 12:55:50;;;;;;;3.40;1.77;;;;;;;;;;5033081;28;20379;-70
2023/12/21 12:58:16;;;;;;;4.55;1.80;;;;;;;;;;5032920;28;20494;-70
2023/12/21 13:00:42;;;;;;;4.97;1.83;;;;;;;;;;5032767;28;20585;-70
2023/12/21 13:03:09;;;;;;;5.03;1.60;;;;;;;;;;5016020;28;20410;-71
2023/12/21 13:05:35;;;;;;;4.57;1.50;;;;;;;;;;5034033;28;20423;-71
2023/12/21 13:08:01;;;;;;;3.30;1.55;;;;;;;;;;5033581;28;20421;-71
2023/12/21 13:10:27;;;;;;;4.70;1.60;;;;;;;;;;5015454;28;20482;-71
2023/12/21 13:12:53;;;;;;;3.97;1.60;;;;;;;;;;5032778;28;20415;-71
2023/12/21 13:15:19;;;;;;;2.57;1.40;;;;;;;;;;5032674;28;20383;-71
2023/12/21 13:17:44;;;;;;;3.95;1.63;;;;;;;;;;5015334;28;20395;-72
2023/12/21 13:20:11;;;;;;;3.70;1.58;;;;;;;;;;5033049;28;20383;-71
2023/12/21 13:22:37;;;;;;;2.75;1.40;;;;;;;;;;5032641;28;20383;-72
2023/12/21 13:25:03;;;;;;;4.88;1.63;;;;;;;;;;5032599;28;20800;-72
2023/12/21 13:27:29;;;;;;;4.60;1.95;;;;;;;;;;5032382;28;20851;-72
2023/12/21 13:29:55;;;;;;;8.20;3.00;;;;;;;;;;5014571;28;20487;-71
2023/12/21 13:32:21;;;;;;;7.20;2.67;;;;;;;;;;5032140;28;20379;-71
2023/12/21 13:34:47;;;;;;;4.78;2.35;;;;;;;;;;5032538;28;20379;-71
2023/12/21 13:37:13;;;;;;;4.50;2.08;;;;;;;;;;5032323;28;20380;-70
2023/12/21 13:39:39;;;;;;;4.80;2.58;;;;;;;;;;5032494;28;20403;-70
2023/12/21 13:42:08;;;;;;;2.90;2.22;;;;;;;;;;5032809;28;20372;-71
2023/12/21 13:44:34;;;;;;;6.20;2.55;;;;;;;;;;5032671;28;20865;-71
2023/12/21 13:47:00;;;;;;;7.03;2.33;;;;;;;;;;5020357;28;20398;-72
2023/12/21 13:49:26;;;;;;;6.03;2.20;;;;;;;;;;5018902;28;20407;-70
2023/12/21 13:51:53;;;;;;;4.93;2.00;;;;;;;;;;5036049;28;20387;-71
2023/12/21 13:54:21;;;;;;;3.15;1.60;;;;;;;;;;5036600;28;20383;-71
2023/12/21 13:56:47;;;;;;;3.75;1.70;;;;;;;;;;5036377;28;20379;-71
2023/12/21 13:59:13;;;;;;;3.53;1.63;;;;;;;;;;5035808;28;20417;-70
2023/12/21 14:01:39;;;;;;;4.78;1.83;;;;;;;;;;5035665;28;20889;-70
2023/12/21 14:04:05;;;;;;;7.63;4.20;;;;;;;;;;5036185;28;20387;-69
2023/12/21 14:06:31;;;;;;;15.23;9.50;;;;;;;;;;5036790;28;20386;-70
2023/12/21 14:08:58;;;;;;;6.25;3.00;;;;;;;;;;5019191;28;20383;-71
2023/12/21 14:11:24;;;;;;;2.75;1.52;;;;;;;;;;5018673;28;20386;-70
2023/12/21 14:13:50;;;;;;;4.05;1.67;;;;;;;;;;5035816;28;20391;-70
2023/12/21 14:16:16;;;;;;;3.13;1.60;;;;;;;;;;5036067;28;20741;-69
2023/12/21 14:18:42;;;;;;;3.38;1.73;;;;;;;;;;5017866;28;20398;-70
2023/12/21 14:21:08;;;;;;;4.40;1.73;;;;;;;;;;5036214;28;20387;-69
2023/12/21 14:23:34;;;;;;;4.30;1.48;;;;;;;;;;5035494;28;20410;-70